sensor_id;sensor_type;location;lat;lon;timestamp;temperature;humidity
67769;DHT22;54569;52.018;5.584;2023-07-31T00:01:24;16.00;91.90
67769;DHT22;54569;52.018;5.584;2023-07-31T00:03:53;16.10;91.90
67769;DHT22;54569;52.018;5.584;2023-07-31T00:06:18;16.10;92.00
67769;DHT22;54569;52.018;5.584;2023-07-31T00:08:44;16.10;91.90
67769;DHT22;54569;52.018;5.584;2023-07-31T00:11:10;16.10;92.10
67769;DHT22;54569;52.018;5.584;2023-07-31T00:13:35;16.10;92.10
67769;DHT22;54569;52.018;5.584;2023-07-31T00:16:01;16.10;92.20
67769;DHT22;54569;52.018;5.584;2023-07-31T00:18:27;16.10;92.10
67769;DHT22;54569;52.018;5.584;2023-07-31T00:20:53;16.10;92.20
67769;DHT22;54569;52.018;5.584;2023-07-31T00:23:18;16.20;92.20
67769;DHT22;54569;52.018;5.584;2023-07-31T00:25:44;16.20;92.40
67769;DHT22;54569;52.018;5.584;2023-07-31T00:28:10;16.20;92.30
67769;DHT22;54569;52.018;5.584;2023-07-31T00:30:35;16.30;92.50
67769;DHT22;54569;52.018;5.584;2023-07-31T00:33:01;16.30;92.50
67769;DHT22;54569;52.018;5.584;2023-07-31T00:35:27;16.30;92.50
67769;DHT22;54569;52.018;5.584;2023-07-31T00:37:52;16.40;92.90
67769;DHT22;54569;52.018;5.584;2023-07-31T00:40:18;16.40;93.00
67769;DHT22;54569;52.018;5.584;2023-07-31T00:42:44;16.40;93.30
67769;DHT22;54569;52.018;5.584;2023-07-31T00:45:10;16.50;93.60
67769;DHT22;54569;52.018;5.584;2023-07-31T00:47:35;16.60;93.40
67769;DHT22;54569;52.018;5.584;2023-07-31T00:50:01;16.70;93.70
67769;DHT22;54569;52.018;5.584;2023-07-31T00:52:27;16.70;93.90
67769;DHT22;54569;52.018;5.584;2023-07-31T00:54:52;16.80;94.30
67769;DHT22;54569;52.018;5.584;2023-07-31T00:57:18;16.80;94.20
67769;DHT22;54569;52.018;5.584;2023-07-31T00:59:44;16.80;94.20
67769;DHT22;54569;52.018;5.584;2023-07-31T01:02:12;16.90;93.90
67769;DHT22;54569;52.018;5.584;2023-07-31T01:04:38;16.90;93.90
67769;DHT22;54569;52.018;5.584;2023-07-31T01:07:27;16.90;94.00
67769;DHT22;54569;52.018;5.584;2023-07-31T01:12:28;16.90;94.10
67769;DHT22;54569;52.018;5.584;2023-07-31T01:17:26;17.00;95.20
67769;DHT22;54569;52.018;5.584;2023-07-31T01:19:54;17.00;94.50
67769;DHT22;54569;52.018;5.584;2023-07-31T01:28:09;17.00;95.80
67769;DHT22;54569;52.018;5.584;2023-07-31T01:30:44;17.00;94.90
67769;DHT22;54569;52.018;5.584;2023-07-31T01:33:11;17.00;94.70
67769;DHT22;54569;52.018;5.584;2023-07-31T01:35:38;17.10;94.50
67769;DHT22;54569;52.018;5.584;2023-07-31T01:38:05;17.00;94.40
67769;DHT22;54569;52.018;5.584;2023-07-31T01:40:30;17.10;94.70
67769;DHT22;54569;52.018;5.584;2023-07-31T01:42:56;17.00;94.90
67769;DHT22;54569;52.018;5.584;2023-07-31T01:45:22;17.10;94.60
67769;DHT22;54569;52.018;5.584;2023-07-31T01:47:48;17.10;95.00
67769;DHT22;54569;52.018;5.584;2023-07-31T01:50:13;17.00;95.00
67769;DHT22;54569;52.018;5.584;2023-07-31T01:52:39;17.00;95.10
67769;DHT22;54569;52.018;5.584;2023-07-31T01:55:05;17.00;95.20
67769;DHT22;54569;52.018;5.584;2023-07-31T01:57:30;17.00;95.30
67769;DHT22;54569;52.018;5.584;2023-07-31T01:59:56;17.00;95.20
67769;DHT22;54569;52.018;5.584;2023-07-31T02:02:22;17.00;95.20
67769;DHT22;54569;52.018;5.584;2023-07-31T02:04:48;17.00;95.30
67769;DHT22;54569;52.018;5.584;2023-07-31T02:07:14;17.00;95.70
67769;DHT22;54569;52.018;5.584;2023-07-31T02:09:40;16.90;95.50
67769;DHT22;54569;52.018;5.584;2023-07-31T02:12:06;16.90;95.90
67769;DHT22;54569;52.018;5.584;2023-07-31T02:14:34;16.90;95.90
67769;DHT22;54569;52.018;5.584;2023-07-31T02:17:00;16.80;95.80
67769;DHT22;54569;52.018;5.584;2023-07-31T02:19:26;16.80;95.80
67769;DHT22;54569;52.018;5.584;2023-07-31T02:21:52;16.80;95.90
67769;DHT22;54569;52.018;5.584;2023-07-31T02:24:18;16.80;96.00
67769;DHT22;54569;52.018;5.584;2023-07-31T02:26:43;16.80;95.80
67769;DHT22;54569;52.018;5.584;2023-07-31T02:29:09;16.80;95.90
67769;DHT22;54569;52.018;5.584;2023-07-31T02:31:35;16.90;95.90
67769;DHT22;54569;52.018;5.584;2023-07-31T02:34:00;16.80;96.10
67769;DHT22;54569;52.018;5.584;2023-07-31T02:36:26;16.90;96.10
67769;DHT22;54569;52.018;5.584;2023-07-31T02:38:51;16.90;96.40
67769;DHT22;54569;52.018;5.584;2023-07-31T02:41:17;16.90;96.50
67769;DHT22;54569;52.018;5.584;2023-07-31T02:43:43;16.90;96.40
67769;DHT22;54569;52.018;5.584;2023-07-31T02:46:09;16.90;96.40
67769;DHT22;54569;52.018;5.584;2023-07-31T02:48:35;16.90;96.20
67769;DHT22;54569;52.018;5.584;2023-07-31T02:51:00;16.90;96.00
67769;DHT22;54569;52.018;5.584;2023-07-31T02:53:26;16.90;96.10
67769;DHT22;54569;52.018;5.584;2023-07-31T02:55:52;16.90;96.00
67769;DHT22;54569;52.018;5.584;2023-07-31T02:58:17;16.90;96.00
67769;DHT22;54569;52.018;5.584;2023-07-31T03:00:44;16.90;96.00
67769;DHT22;54569;52.018;5.584;2023-07-31T03:03:10;16.90;96.00
67769;DHT22;54569;52.018;5.584;2023-07-31T03:05:36;16.90;96.00
67769;DHT22;54569;52.018;5.584;2023-07-31T03:08:01;16.90;96.00
67769;DHT22;54569;52.018;5.584;2023-07-31T03:10:27;16.90;96.20
67769;DHT22;54569;52.018;5.584;2023-07-31T03:12:53;16.90;96.00
67769;DHT22;54569;52.018;5.584;2023-07-31T03:15:19;16.90;96.20
67769;DHT22;54569;52.018;5.584;2023-07-31T03:17:44;16.90;96.30
67769;DHT22;54569;52.018;5.584;2023-07-31T03:20:10;16.90;96.10
67769;DHT22;54569;52.018;5.584;2023-07-31T03:22:36;16.90;96.20
67769;DHT22;54569;52.018;5.584;2023-07-31T03:25:05;16.90;96.40
67769;DHT22;54569;52.018;5.584;2023-07-31T03:27:31;16.90;96.00
67769;DHT22;54569;52.018;5.584;2023-07-31T03:29:57;16.90;95.70
67769;DHT22;54569;52.018;5.584;2023-07-31T03:32:24;16.90;95.90
67769;DHT22;54569;52.018;5.584;2023-07-31T03:34:50;16.90;95.90
67769;DHT22;54569;52.018;5.584;2023-07-31T03:37:15;16.90;95.80
67769;DHT22;54569;52.018;5.584;2023-07-31T03:39:41;16.90;96.00
67769;DHT22;54569;52.018;5.584;2023-07-31T03:42:07;16.90;95.90
67769;DHT22;54569;52.018;5.584;2023-07-31T03:44:32;16.90;95.90
67769;DHT22;54569;52.018;5.584;2023-07-31T03:46:58;16.90;95.50
67769;DHT22;54569;52.018;5.584;2023-07-31T03:49:24;16.90;95.50
67769;DHT22;54569;52.018;5.584;2023-07-31T03:51:50;16.90;95.60
67769;DHT22;54569;52.018;5.584;2023-07-31T03:54:15;16.90;95.50
67769;DHT22;54569;52.018;5.584;2023-07-31T03:56:41;16.90;95.60
67769;DHT22;54569;52.018;5.584;2023-07-31T03:59:07;16.80;95.60
67769;DHT22;54569;52.018;5.584;2023-07-31T04:01:33;16.90;95.40
67769;DHT22;54569;52.018;5.584;2023-07-31T04:03:58;16.90;95.40
67769;DHT22;54569;52.018;5.584;2023-07-31T04:06:24;16.90;95.30
67769;DHT22;54569;52.018;5.584;2023-07-31T04:08:50;16.90;95.30
67769;DHT22;54569;52.018;5.584;2023-07-31T04:11:15;16.90;95.30
67769;DHT22;54569;52.018;5.584;2023-07-31T04:13:41;16.90;95.10
67769;DHT22;54569;52.018;5.584;2023-07-31T04:16:07;16.90;95.10
67769;DHT22;54569;52.018;5.584;2023-07-31T04:18:32;16.90;95.10
67769;DHT22;54569;52.018;5.584;2023-07-31T04:20:58;16.90;95.20
67769;DHT22;54569;52.018;5.584;2023-07-31T04:23:25;16.90;95.10
67769;DHT22;54569;52.018;5.584;2023-07-31T04:25:51;16.90;95.40
67769;DHT22;54569;52.018;5.584;2023-07-31T04:28:17;16.90;95.00
67769;DHT22;54569;52.018;5.584;2023-07-31T04:30:42;16.90;95.00
67769;DHT22;54569;52.018;5.584;2023-07-31T04:33:08;16.90;94.90
67769;DHT22;54569;52.018;5.584;2023-07-31T04:35:34;16.90;95.00
67769;DHT22;54569;52.018;5.584;2023-07-31T04:37:59;16.90;94.80
67769;DHT22;54569;52.018;5.584;2023-07-31T04:40:25;16.90;94.80
67769;DHT22;54569;52.018;5.584;2023-07-31T04:42:51;16.90;94.70
67769;DHT22;54569;52.018;5.584;2023-07-31T04:45:17;16.90;94.60
67769;DHT22;54569;52.018;5.584;2023-07-31T04:47:42;16.90;94.50
67769;DHT22;54569;52.018;5.584;2023-07-31T04:50:08;16.90;94.50
67769;DHT22;54569;52.018;5.584;2023-07-31T04:52:34;16.90;94.40
67769;DHT22;54569;52.018;5.584;2023-07-31T04:55:00;16.90;94.40
67769;DHT22;54569;52.018;5.584;2023-07-31T04:57:26;17.00;94.30
67769;DHT22;54569;52.018;5.584;2023-07-31T04:59:51;17.00;94.30
67769;DHT22;54569;52.018;5.584;2023-07-31T05:02:17;17.00;94.40
67769;DHT22;54569;52.018;5.584;2023-07-31T05:04:43;17.00;94.40
67769;DHT22;54569;52.018;5.584;2023-07-31T05:07:09;17.00;94.60
67769;DHT22;54569;52.018;5.584;2023-07-31T05:09:34;17.00;94.70
67769;DHT22;54569;52.018;5.584;2023-07-31T05:12:00;16.90;94.80
67769;DHT22;54569;52.018;5.584;2023-07-31T05:14:26;16.90;94.80
67769;DHT22;54569;52.018;5.584;2023-07-31T05:16:52;16.90;94.80
67769;DHT22;54569;52.018;5.584;2023-07-31T05:19:18;16.90;94.80
67769;DHT22;54569;52.018;5.584;2023-07-31T05:21:43;16.90;94.80
67769;DHT22;54569;52.018;5.584;2023-07-31T05:24:10;16.90;94.90
67769;DHT22;54569;52.018;5.584;2023-07-31T05:26:36;16.90;95.10
67769;DHT22;54569;52.018;5.584;2023-07-31T05:29:01;16.90;95.20
67769;DHT22;54569;52.018;5.584;2023-07-31T05:31:27;16.90;95.60
67769;DHT22;54569;52.018;5.584;2023-07-31T05:33:53;16.80;95.70
67769;DHT22;54569;52.018;5.584;2023-07-31T05:36:19;16.80;95.90
67769;DHT22;54569;52.018;5.584;2023-07-31T05:38:45;16.80;95.90
67769;DHT22;54569;52.018;5.584;2023-07-31T05:41:13;16.70;96.50
67769;DHT22;54569;52.018;5.584;2023-07-31T05:43:39;16.70;96.50
67769;DHT22;54569;52.018;5.584;2023-07-31T05:46:05;16.70;96.50
67769;DHT22;54569;52.018;5.584;2023-07-31T05:48:32;16.60;97.10
67769;DHT22;54569;52.018;5.584;2023-07-31T05:50:59;16.60;97.30
67769;DHT22;54569;52.018;5.584;2023-07-31T05:53:25;16.60;97.10
67769;DHT22;54569;52.018;5.584;2023-07-31T05:55:51;16.50;97.70
67769;DHT22;54569;52.018;5.584;2023-07-31T05:58:17;16.60;97.50
67769;DHT22;54569;52.018;5.584;2023-07-31T06:00:42;16.60;97.40
67769;DHT22;54569;52.018;5.584;2023-07-31T06:03:08;16.60;97.50
67769;DHT22;54569;52.018;5.584;2023-07-31T06:05:34;16.60;97.80
67769;DHT22;54569;52.018;5.584;2023-07-31T06:08:00;16.60;97.60
67769;DHT22;54569;52.018;5.584;2023-07-31T06:10:26;16.70;97.60
67769;DHT22;54569;52.018;5.584;2023-07-31T06:12:52;16.70;97.60
67769;DHT22;54569;52.018;5.584;2023-07-31T06:15:18;16.70;97.60
67769;DHT22;54569;52.018;5.584;2023-07-31T06:17:45;16.70;98.00
67769;DHT22;54569;52.018;5.584;2023-07-31T06:20:10;16.70;97.60
67769;DHT22;54569;52.018;5.584;2023-07-31T06:22:36;16.70;97.80
67769;DHT22;54569;52.018;5.584;2023-07-31T06:25:02;16.70;97.70
67769;DHT22;54569;52.018;5.584;2023-07-31T06:27:28;16.70;98.10
67769;DHT22;54569;52.018;5.584;2023-07-31T06:29:53;16.80;98.00
67769;DHT22;54569;52.018;5.584;2023-07-31T06:32:19;16.80;98.00
67769;DHT22;54569;52.018;5.584;2023-07-31T06:34:45;16.80;98.10
67769;DHT22;54569;52.018;5.584;2023-07-31T06:37:11;16.80;98.40
67769;DHT22;54569;52.018;5.584;2023-07-31T06:39:36;16.90;98.00
67769;DHT22;54569;52.018;5.584;2023-07-31T06:42:03;16.90;98.10
67769;DHT22;54569;52.018;5.584;2023-07-31T06:44:29;16.90;97.90
67769;DHT22;54569;52.018;5.584;2023-07-31T06:46:55;16.90;98.50
67769;DHT22;54569;52.018;5.584;2023-07-31T06:49:21;16.90;98.30
67769;DHT22;54569;52.018;5.584;2023-07-31T06:51:46;16.90;98.70
67769;DHT22;54569;52.018;5.584;2023-07-31T06:54:12;16.90;98.90
67769;DHT22;54569;52.018;5.584;2023-07-31T06:56:38;16.90;98.70
67769;DHT22;54569;52.018;5.584;2023-07-31T06:59:03;16.90;98.60
67769;DHT22;54569;52.018;5.584;2023-07-31T07:01:29;16.90;98.90
67769;DHT22;54569;52.018;5.584;2023-07-31T07:03:55;16.90;99.00
67769;DHT22;54569;52.018;5.584;2023-07-31T07:06:22;17.00;98.90
67769;DHT22;54569;52.018;5.584;2023-07-31T07:08:48;17.00;98.70
67769;DHT22;54569;52.018;5.584;2023-07-31T07:11:14;17.10;98.70
67769;DHT22;54569;52.018;5.584;2023-07-31T07:13:40;17.10;99.00
67769;DHT22;54569;52.018;5.584;2023-07-31T07:16:05;17.20;98.90
67769;DHT22;54569;52.018;5.584;2023-07-31T07:18:31;17.20;98.80
67769;DHT22;54569;52.018;5.584;2023-07-31T07:20:57;17.20;98.90
67769;DHT22;54569;52.018;5.584;2023-07-31T07:23:23;17.20;99.20
67769;DHT22;54569;52.018;5.584;2023-07-31T07:25:49;17.20;99.10
67769;DHT22;54569;52.018;5.584;2023-07-31T07:28:15;17.20;99.90
67769;DHT22;54569;52.018;5.584;2023-07-31T07:30:41;17.20;99.30
67769;DHT22;54569;52.018;5.584;2023-07-31T07:33:06;17.20;99.30
67769;DHT22;54569;52.018;5.584;2023-07-31T07:35:35;17.20;99.40
67769;DHT22;54569;52.018;5.584;2023-07-31T07:38:04;17.20;99.20
67769;DHT22;54569;52.018;5.584;2023-07-31T07:40:30;17.20;99.10
67769;DHT22;54569;52.018;5.584;2023-07-31T07:42:56;17.30;99.30
67769;DHT22;54569;52.018;5.584;2023-07-31T07:45:21;17.30;99.50
67769;DHT22;54569;52.018;5.584;2023-07-31T07:47:47;17.20;99.70
67769;DHT22;54569;52.018;5.584;2023-07-31T07:50:13;17.20;99.80
67769;DHT22;54569;52.018;5.584;2023-07-31T07:52:38;17.20;99.80
67769;DHT22;54569;52.018;5.584;2023-07-31T07:55:04;17.30;99.80
67769;DHT22;54569;52.018;5.584;2023-07-31T07:57:30;17.30;99.80
67769;DHT22;54569;52.018;5.584;2023-07-31T07:59:56;17.30;99.60
67769;DHT22;54569;52.018;5.584;2023-07-31T08:02:22;17.30;99.90
67769;DHT22;54569;52.018;5.584;2023-07-31T08:04:48;17.40;99.70
67769;DHT22;54569;52.018;5.584;2023-07-31T08:07:14;17.40;99.60
67769;DHT22;54569;52.018;5.584;2023-07-31T08:09:40;17.40;99.80
67769;DHT22;54569;52.018;5.584;2023-07-31T08:12:07;17.40;99.80
67769;DHT22;54569;52.018;5.584;2023-07-31T08:14:32;17.50;99.90
67769;DHT22;54569;52.018;5.584;2023-07-31T08:16:58;17.50;99.90
67769;DHT22;54569;52.018;5.584;2023-07-31T08:19:24;17.50;99.90
67769;DHT22;54569;52.018;5.584;2023-07-31T08:21:50;17.50;99.90
67769;DHT22;54569;52.018;5.584;2023-07-31T08:24:16;17.50;99.90
67769;DHT22;54569;52.018;5.584;2023-07-31T08:26:42;17.50;99.90
67769;DHT22;54569;52.018;5.584;2023-07-31T08:29:07;17.60;99.90
67769;DHT22;54569;52.018;5.584;2023-07-31T08:31:33;17.60;99.90
67769;DHT22;54569;52.018;5.584;2023-07-31T08:34:00;17.60;99.90
67769;DHT22;54569;52.018;5.584;2023-07-31T08:36:26;17.70;99.90
67769;DHT22;54569;52.018;5.584;2023-07-31T08:38:51;17.70;99.90
67769;DHT22;54569;52.018;5.584;2023-07-31T08:41:17;17.70;99.90
67769;DHT22;54569;52.018;5.584;2023-07-31T08:43:47;17.70;99.90
67769;DHT22;54569;52.018;5.584;2023-07-31T08:46:15;17.80;99.90
67769;DHT22;54569;52.018;5.584;2023-07-31T08:48:42;17.80;99.90
67769;DHT22;54569;52.018;5.584;2023-07-31T08:51:08;17.80;99.90
67769;DHT22;54569;52.018;5.584;2023-07-31T08:53:34;17.80;99.90
67769;DHT22;54569;52.018;5.584;2023-07-31T08:56:00;17.90;99.90
67769;DHT22;54569;52.018;5.584;2023-07-31T08:58:31;17.90;99.80
67769;DHT22;54569;52.018;5.584;2023-07-31T09:00:58;17.90;99.90
67769;DHT22;54569;52.018;5.584;2023-07-31T09:03:26;17.90;99.90
67769;DHT22;54569;52.018;5.584;2023-07-31T09:05:52;17.90;99.90
67769;DHT22;54569;52.018;5.584;2023-07-31T09:08:21;17.90;99.90
67769;DHT22;54569;52.018;5.584;2023-07-31T09:10:47;17.80;99.90
67769;DHT22;54569;52.018;5.584;2023-07-31T09:13:15;17.80;99.90
67769;DHT22;54569;52.018;5.584;2023-07-31T09:15:43;17.90;99.90
67769;DHT22;54569;52.018;5.584;2023-07-31T09:18:09;17.90;99.90
67769;DHT22;54569;52.018;5.584;2023-07-31T09:20:35;17.90;99.90
67769;DHT22;54569;52.018;5.584;2023-07-31T09:23:11;17.90;99.90
67769;DHT22;54569;52.018;5.584;2023-07-31T09:25:37;17.90;99.90
67769;DHT22;54569;52.018;5.584;2023-07-31T09:28:08;17.90;99.90
67769;DHT22;54569;52.018;5.584;2023-07-31T09:30:49;18.00;99.90
67769;DHT22;54569;52.018;5.584;2023-07-31T09:33:15;17.90;99.90
67769;DHT22;54569;52.018;5.584;2023-07-31T09:35:42;17.90;99.90
67769;DHT22;54569;52.018;5.584;2023-07-31T09:38:11;18.00;99.90
67769;DHT22;54569;52.018;5.584;2023-07-31T09:40:46;18.00;99.90
67769;DHT22;54569;52.018;5.584;2023-07-31T09:43:22;18.10;99.90
67769;DHT22;54569;52.018;5.584;2023-07-31T09:45:48;18.10;99.90
67769;DHT22;54569;52.018;5.584;2023-07-31T09:48:17;18.20;99.90
67769;DHT22;54569;52.018;5.584;2023-07-31T09:50:46;18.10;99.90
67769;DHT22;54569;52.018;5.584;2023-07-31T09:53:12;18.10;99.90
67769;DHT22;54569;52.018;5.584;2023-07-31T09:55:38;18.10;99.90
67769;DHT22;54569;52.018;5.584;2023-07-31T09:58:06;18.10;99.90
67769;DHT22;54569;52.018;5.584;2023-07-31T10:00:32;18.10;99.90
67769;DHT22;54569;52.018;5.584;2023-07-31T10:03:06;18.10;99.90
67769;DHT22;54569;52.018;5.584;2023-07-31T10:05:37;18.10;99.90
67769;DHT22;54569;52.018;5.584;2023-07-31T10:08:04;18.10;99.90
67769;DHT22;54569;52.018;5.584;2023-07-31T10:10:31;18.20;99.90
67769;DHT22;54569;52.018;5.584;2023-07-31T10:12:57;18.20;99.90
67769;DHT22;54569;52.018;5.584;2023-07-31T10:15:24;18.30;99.90
67769;DHT22;54569;52.018;5.584;2023-07-31T10:17:51;18.40;99.90
67769;DHT22;54569;52.018;5.584;2023-07-31T10:20:17;18.70;99.80
67769;DHT22;54569;52.018;5.584;2023-07-31T10:22:44;18.80;99.10
67769;DHT22;54569;52.018;5.584;2023-07-31T10:25:11;18.90;99.00
67769;DHT22;54569;52.018;5.584;2023-07-31T10:27:39;18.80;98.90
67769;DHT22;54569;52.018;5.584;2023-07-31T10:30:11;18.80;98.90
67769;DHT22;54569;52.018;5.584;2023-07-31T10:32:39;18.90;99.00
67769;DHT22;54569;52.018;5.584;2023-07-31T10:35:06;18.90;98.80
67769;DHT22;54569;52.018;5.584;2023-07-31T10:37:42;19.00;98.90
67769;DHT22;54569;52.018;5.584;2023-07-31T10:40:17;19.10;99.40
67769;DHT22;54569;52.018;5.584;2023-07-31T10:42:55;19.20;98.80
67769;DHT22;54569;52.018;5.584;2023-07-31T10:45:35;19.30;98.60
67769;DHT22;54569;52.018;5.584;2023-07-31T10:48:07;19.40;98.40
67769;DHT22;54569;52.018;5.584;2023-07-31T10:50:37;19.50;97.80
67769;DHT22;54569;52.018;5.584;2023-07-31T10:53:03;19.50;97.60
67769;DHT22;54569;52.018;5.584;2023-07-31T10:55:42;19.60;97.30
67769;DHT22;54569;52.018;5.584;2023-07-31T10:58:11;19.70;97.60
67769;DHT22;54569;52.018;5.584;2023-07-31T11:00:42;19.60;97.10
67769;DHT22;54569;52.018;5.584;2023-07-31T11:03:16;19.50;97.40
67769;DHT22;54569;52.018;5.584;2023-07-31T11:10:43;19.40;98.10
67769;DHT22;54569;52.018;5.584;2023-07-31T11:13:09;19.40;98.20
67769;DHT22;54569;52.018;5.584;2023-07-31T11:15:35;19.40;98.20
67769;DHT22;54569;52.018;5.584;2023-07-31T11:18:01;19.30;98.60
67769;DHT22;54569;52.018;5.584;2023-07-31T11:20:36;19.30;98.80
67769;DHT22;54569;52.018;5.584;2023-07-31T11:23:05;19.20;99.00
67769;DHT22;54569;52.018;5.584;2023-07-31T11:25:31;19.10;99.10
67769;DHT22;54569;52.018;5.584;2023-07-31T11:28:03;19.10;99.40
67769;DHT22;54569;52.018;5.584;2023-07-31T11:30:28;19.10;99.80
67769;DHT22;54569;52.018;5.584;2023-07-31T11:32:55;19.10;99.90
67769;DHT22;54569;52.018;5.584;2023-07-31T11:35:21;19.20;99.60
67769;DHT22;54569;52.018;5.584;2023-07-31T11:37:47;19.30;99.80
67769;DHT22;54569;52.018;5.584;2023-07-31T11:40:14;19.40;99.30
67769;DHT22;54569;52.018;5.584;2023-07-31T11:42:40;19.50;98.80
67769;DHT22;54569;52.018;5.584;2023-07-31T11:45:08;19.60;98.60
67769;DHT22;54569;52.018;5.584;2023-07-31T11:47:36;19.50;98.50
67769;DHT22;54569;52.018;5.584;2023-07-31T11:50:06;19.50;98.60
67769;DHT22;54569;52.018;5.584;2023-07-31T11:52:36;19.60;98.60
67769;DHT22;54569;52.018;5.584;2023-07-31T11:55:04;19.60;98.60
67769;DHT22;54569;52.018;5.584;2023-07-31T11:57:29;19.70;98.30
67769;DHT22;54569;52.018;5.584;2023-07-31T11:59:56;19.70;98.10
67769;DHT22;54569;52.018;5.584;2023-07-31T12:02:23;19.60;98.10
67769;DHT22;54569;52.018;5.584;2023-07-31T12:04:49;19.60;98.10
67769;DHT22;54569;52.018;5.584;2023-07-31T12:07:15;19.60;98.20
67769;DHT22;54569;52.018;5.584;2023-07-31T12:09:56;19.60;98.10
67769;DHT22;54569;52.018;5.584;2023-07-31T12:12:24;19.60;98.60
67769;DHT22;54569;52.018;5.584;2023-07-31T12:14:50;19.70;98.00
67769;DHT22;54569;52.018;5.584;2023-07-31T12:17:19;19.70;97.80
67769;DHT22;54569;52.018;5.584;2023-07-31T12:19:48;19.70;97.60
67769;DHT22;54569;52.018;5.584;2023-07-31T12:22:15;19.70;97.60
67769;DHT22;54569;52.018;5.584;2023-07-31T12:24:43;19.70;97.60
67769;DHT22;54569;52.018;5.584;2023-07-31T12:27:13;19.70;97.80
67769;DHT22;54569;52.018;5.584;2023-07-31T12:29:40;19.70;97.90
67769;DHT22;54569;52.018;5.584;2023-07-31T12:32:27;19.60;98.30
67769;DHT22;54569;52.018;5.584;2023-07-31T12:34:59;19.50;99.20
67769;DHT22;54569;52.018;5.584;2023-07-31T12:37:26;19.30;99.20
67769;DHT22;54569;52.018;5.584;2023-07-31T12:39:52;19.30;99.60
67769;DHT22;54569;52.018;5.584;2023-07-31T12:42:18;19.20;99.80
67769;DHT22;54569;52.018;5.584;2023-07-31T12:44:43;19.40;99.70
67769;DHT22;54569;52.018;5.584;2023-07-31T12:47:09;19.40;99.70
67769;DHT22;54569;52.018;5.584;2023-07-31T12:49:35;19.40;99.70
67769;DHT22;54569;52.018;5.584;2023-07-31T12:52:00;19.50;99.10
67769;DHT22;54569;52.018;5.584;2023-07-31T12:54:26;19.60;98.80
67769;DHT22;54569;52.018;5.584;2023-07-31T12:56:52;19.60;98.60
67769;DHT22;54569;52.018;5.584;2023-07-31T12:59:17;19.70;98.40
67769;DHT22;54569;52.018;5.584;2023-07-31T13:01:43;19.80;98.30
67769;DHT22;54569;52.018;5.584;2023-07-31T13:04:09;19.80;98.20
67769;DHT22;54569;52.018;5.584;2023-07-31T13:06:35;19.80;98.10
67769;DHT22;54569;52.018;5.584;2023-07-31T13:09:00;19.80;98.00
67769;DHT22;54569;52.018;5.584;2023-07-31T13:11:26;19.90;97.90
67769;DHT22;54569;52.018;5.584;2023-07-31T13:13:52;19.90;97.80
67769;DHT22;54569;52.018;5.584;2023-07-31T13:16:17;19.80;97.90
67769;DHT22;54569;52.018;5.584;2023-07-31T13:18:43;19.80;98.00
67769;DHT22;54569;52.018;5.584;2023-07-31T13:21:08;19.70;98.10
67769;DHT22;54569;52.018;5.584;2023-07-31T13:23:34;19.70;98.30
67769;DHT22;54569;52.018;5.584;2023-07-31T13:26:00;19.70;98.40
67769;DHT22;54569;52.018;5.584;2023-07-31T13:28:25;19.70;98.20
67769;DHT22;54569;52.018;5.584;2023-07-31T13:30:51;19.60;98.40
67769;DHT22;54569;52.018;5.584;2023-07-31T13:33:17;19.70;98.60
67769;DHT22;54569;52.018;5.584;2023-07-31T13:35:42;19.70;98.50
67769;DHT22;54569;52.018;5.584;2023-07-31T13:38:08;19.70;98.40
67769;DHT22;54569;52.018;5.584;2023-07-31T13:40:34;19.70;98.50
67769;DHT22;54569;52.018;5.584;2023-07-31T13:43:00;19.60;98.50
67769;DHT22;54569;52.018;5.584;2023-07-31T13:45:26;19.60;98.70
67769;DHT22;54569;52.018;5.584;2023-07-31T13:47:51;19.60;98.90
67769;DHT22;54569;52.018;5.584;2023-07-31T13:50:17;19.60;99.00
67769;DHT22;54569;52.018;5.584;2023-07-31T13:52:46;19.50;99.30
67769;DHT22;54569;52.018;5.584;2023-07-31T13:55:12;19.50;99.40
67769;DHT22;54569;52.018;5.584;2023-07-31T13:57:37;19.50;99.40
67769;DHT22;54569;52.018;5.584;2023-07-31T14:00:03;19.50;99.80
67769;DHT22;54569;52.018;5.584;2023-07-31T14:02:30;19.40;99.70
67769;DHT22;54569;52.018;5.584;2023-07-31T14:04:56;19.40;99.90
67769;DHT22;54569;52.018;5.584;2023-07-31T14:07:21;19.30;99.90
67769;DHT22;54569;52.018;5.584;2023-07-31T14:09:48;19.30;99.90
67769;DHT22;54569;52.018;5.584;2023-07-31T14:12:14;19.20;99.90
67769;DHT22;54569;52.018;5.584;2023-07-31T14:14:39;19.20;99.90
67769;DHT22;54569;52.018;5.584;2023-07-31T14:17:05;19.20;99.90
67769;DHT22;54569;52.018;5.584;2023-07-31T14:19:31;19.20;99.90
67769;DHT22;54569;52.018;5.584;2023-07-31T14:21:58;19.10;99.90
67769;DHT22;54569;52.018;5.584;2023-07-31T14:24:24;19.20;99.90
67769;DHT22;54569;52.018;5.584;2023-07-31T14:26:50;19.20;99.90
67769;DHT22;54569;52.018;5.584;2023-07-31T14:29:16;19.10;99.90
67769;DHT22;54569;52.018;5.584;2023-07-31T14:31:41;19.10;99.90
67769;DHT22;54569;52.018;5.584;2023-07-31T14:34:07;19.10;99.90
67769;DHT22;54569;52.018;5.584;2023-07-31T14:36:33;19.10;99.90
67769;DHT22;54569;52.018;5.584;2023-07-31T14:38:58;19.10;99.90
67769;DHT22;54569;52.018;5.584;2023-07-31T14:41:24;19.10;99.90
67769;DHT22;54569;52.018;5.584;2023-07-31T14:43:50;19.10;99.90
67769;DHT22;54569;52.018;5.584;2023-07-31T14:46:15;19.00;99.90
67769;DHT22;54569;52.018;5.584;2023-07-31T14:48:41;19.10;99.90
67769;DHT22;54569;52.018;5.584;2023-07-31T14:51:07;19.10;99.90
67769;DHT22;54569;52.018;5.584;2023-07-31T14:53:33;19.10;99.90
67769;DHT22;54569;52.018;5.584;2023-07-31T14:55:58;19.00;99.90
67769;DHT22;54569;52.018;5.584;2023-07-31T14:58:24;19.00;99.90
67769;DHT22;54569;52.018;5.584;2023-07-31T15:00:50;19.00;99.90
67769;DHT22;54569;52.018;5.584;2023-07-31T15:03:15;19.00;99.90
67769;DHT22;54569;52.018;5.584;2023-07-31T15:05:41;19.00;99.90
67769;DHT22;54569;52.018;5.584;2023-07-31T15:08:07;19.00;99.90
67769;DHT22;54569;52.018;5.584;2023-07-31T15:10:33;19.10;99.90
67769;DHT22;54569;52.018;5.584;2023-07-31T15:12:58;19.00;99.90
67769;DHT22;54569;52.018;5.584;2023-07-31T15:15:24;19.10;99.90
67769;DHT22;54569;52.018;5.584;2023-07-31T15:17:50;19.10;99.90
67769;DHT22;54569;52.018;5.584;2023-07-31T15:20:16;19.10;99.90
67769;DHT22;54569;52.018;5.584;2023-07-31T15:22:42;19.10;99.90
67769;DHT22;54569;52.018;5.584;2023-07-31T15:25:08;19.10;99.90
67769;DHT22;54569;52.018;5.584;2023-07-31T15:27:34;19.10;99.90
67769;DHT22;54569;52.018;5.584;2023-07-31T15:29:59;19.10;99.90
67769;DHT22;54569;52.018;5.584;2023-07-31T15:32:25;19.10;99.90
67769;DHT22;54569;52.018;5.584;2023-07-31T15:34:51;19.00;99.90
67769;DHT22;54569;52.018;5.584;2023-07-31T15:37:17;19.00;99.90
67769;DHT22;54569;52.018;5.584;2023-07-31T15:39:43;19.00;99.90
67769;DHT22;54569;52.018;5.584;2023-07-31T15:42:09;18.90;99.90